Time;durP1;ratioP1;P1;durP2;ratioP2;P2;SDS_P1;SDS_P2;PMS_P1;PMS_P2;Temp;Humidity;BMP_temperature;BMP_pressure;BME280_temperature;BME280_humidity;BME280_pressure;Samples;Min_cycle;Max_cycle;Signal;HPM_P1;HPM_P2
2021/01/27 00:01:36;;;;;;;13.90;11.18;;;;;;;;;;4969498;28;20194;-56
2021/01/27 00:04:02;;;;;;;15.07;11.50;;;;;;;;;;4970390;28;20560;-57
2021/01/27 00:06:27;;;;;;;14.00;10.90;;;;;;;;;;4970848;28;20179;-56
2021/01/27 00:08:52;;;;;;;14.68;10.82;;;;;;;;;;4968610;28;20177;-57
2021/01/27 00:11:17;;;;;;;13.57;11.05;;;;;;;;;;4964680;28;20222;-57
2021/01/27 00:13:42;;;;;;;14.03;11.10;;;;;;;;;;4960909;28;20184;-57
2021/01/27 00:16:07;;;;;;;12.00;10.45;;;;;;;;;;4961650;28;20639;-57
2021/01/27 00:18:32;;;;;;;15.95;11.57;;;;;;;;;;4956122;28;20171;-57
2021/01/27 00:20:57;;;;;;;13.97;11.17;;;;;;;;;;4960482;28;20176;-57
2021/01/27 00:23:23;;;;;;;14.27;10.50;;;;;;;;;;4957136;28;20639;-57
2021/01/27 00:25:48;;;;;;;13.80;12.17;;;;;;;;;;4973045;28;20210;-57
2021/01/27 00:28:13;;;;;;;14.87;11.00;;;;;;;;;;4961765;28;20594;-58
2021/01/27 00:30:42;;;;;;;11.37;10.17;;;;;;;;;;4961685;28;20180;-57
2021/01/27 00:33:08;;;;;;;12.73;10.30;;;;;;;;;;4956460;28;20185;-56
2021/01/27 00:35:35;;;;;;;11.97;10.10;;;;;;;;;;4972397;28;20591;-56
2021/01/27 00:38:01;;;;;;;14.47;10.40;;;;;;;;;;4958908;28;20605;-57
2021/01/27 00:40:26;;;;;;;10.20;9.20;;;;;;;;;;4964765;28;21481;-57
2021/01/27 00:42:52;;;;;;;12.10;9.73;;;;;;;;;;4970679;28;20595;-57
2021/01/27 00:45:17;;;;;;;16.50;10.47;;;;;;;;;;4972181;28;20213;-56
2021/01/27 00:47:43;;;;;;;11.10;9.30;;;;;;;;;;4953559;28;20181;-57
2021/01/27 00:50:08;;;;;;;11.97;10.07;;;;;;;;;;4964757;28;21055;-57
2021/01/27 00:52:33;;;;;;;12.20;10.03;;;;;;;;;;4963336;28;20189;-57
2021/01/27 00:54:59;;;;;;;14.73;9.90;;;;;;;;;;4953661;28;20185;-57
2021/01/27 00:57:24;;;;;;;11.93;10.00;;;;;;;;;;4962157;28;20859;-57
2021/01/27 00:59:49;;;;;;;11.27;9.90;;;;;;;;;;4971739;28;20182;-57
2021/01/27 01:02:14;;;;;;;12.23;10.27;;;;;;;;;;4963608;28;20666;-57
2021/01/27 01:04:39;;;;;;;14.37;11.80;;;;;;;;;;4953189;28;20232;-57
2021/01/27 01:07:04;;;;;;;13.13;10.70;;;;;;;;;;4971083;28;20239;-57
2021/01/27 01:09:30;;;;;;;11.82;9.40;;;;;;;;;;4961903;28;20234;-56
2021/01/27 01:11:55;;;;;;;13.00;9.68;;;;;;;;;;4953874;28;20169;-57
2021/01/27 01:14:20;;;;;;;10.57;9.20;;;;;;;;;;4952610;28;20545;-56
2021/01/27 01:16:46;;;;;;;15.53;11.20;;;;;;;;;;4957214;28;20193;-56
2021/01/27 01:19:11;;;;;;;12.45;9.88;;;;;;;;;;4962208;28;20656;-56
2021/01/27 01:21:36;;;;;;;11.20;10.10;;;;;;;;;;4964049;28;20192;-56
2021/01/27 01:24:01;;;;;;;12.73;10.53;;;;;;;;;;4965858;28;20204;-56
2021/01/27 01:26:26;;;;;;;13.03;10.77;;;;;;;;;;4969922;28;20184;-56
2021/01/27 01:28:51;;;;;;;12.55;10.07;;;;;;;;;;4952805;28;20260;-56
2021/01/27 01:31:16;;;;;;;12.45;9.57;;;;;;;;;;4962363;28;20177;-56
2021/01/27 01:33:42;;;;;;;11.47;9.30;;;;;;;;;;4960974;28;20175;-56
2021/01/27 01:36:07;;;;;;;12.90;10.80;;;;;;;;;;4971782;28;20568;-57
2021/01/27 01:38:32;;;;;;;11.93;9.40;;;;;;;;;;4952975;28;20212;-56
2021/01/27 01:40:58;;;;;;;12.60;10.18;;;;;;;;;;4956256;28;20242;-57
2021/01/27 01:43:25;;;;;;;12.03;10.33;;;;;;;;;;4966623;28;20641;-56
2021/01/27 01:46:14;;;;;;;11.87;8.93;;;;;;;;;;4959749;28;20651;-57
2021/01/27 01:48:42;;;;;;;10.87;8.53;;;;;;;;;;4967958;28;20621;-56
2021/01/27 01:51:28;;;;;;;12.40;10.63;;;;;;;;;;4964381;28;21019;-56
2021/01/27 01:53:56;;;;;;;12.10;9.50;;;;;;;;;;4965450;28;20605;-56
2021/01/27 01:56:24;;;;;;;12.20;10.67;;;;;;;;;;4971310;28;20608;-56
2021/01/27 01:58:51;;;;;;;13.20;9.80;;;;;;;;;;4958348;28;20635;-56
2021/01/27 02:01:16;;;;;;;12.73;9.77;;;;;;;;;;4959504;28;20608;-56
2021/01/27 02:03:43;;;;;;;13.27;9.70;;;;;;;;;;4956231;28;21032;-57
2021/01/27 02:06:10;;;;;;;12.10;9.63;;;;;;;;;;4955507;28;20621;-56
2021/01/27 02:08:37;;;;;;;14.70;10.43;;;;;;;;;;4970637;28;20595;-57
2021/01/27 02:11:02;;;;;;;15.63;10.83;;;;;;;;;;4967184;28;20593;-57
2021/01/27 02:13:30;;;;;;;12.60;10.30;;;;;;;;;;4957385;28;20666;-56
2021/01/27 02:16:00;;;;;;;13.40;9.40;;;;;;;;;;4952939;28;20180;-57
2021/01/27 02:18:34;;;;;;;15.93;9.90;;;;;;;;;;4969692;28;20695;-56
2021/01/27 02:21:20;;;;;;;12.77;10.00;;;;;;;;;;4956899;28;20627;-56
2021/01/27 02:24:03;;;;;;;12.00;8.63;;;;;;;;;;4966279;28;20598;-56
2021/01/27 02:26:28;;;;;;;14.17;10.23;;;;;;;;;;4959514;28;20604;-57
2021/01/27 02:29:02;;;;;;;12.18;10.45;;;;;;;;;;4957671;28;20605;-57
2021/01/27 02:31:48;;;;;;;14.17;10.17;;;;;;;;;;4969478;28;20209;-56
2021/01/27 02:34:19;;;;;;;11.80;10.30;;;;;;;;;;4959229;28;20599;-56
2021/01/27 02:36:46;;;;;;;10.60;9.17;;;;;;;;;;4958525;28;20605;-57
2021/01/27 02:39:11;;;;;;;10.03;8.50;;;;;;;;;;4950426;28;20651;-56
2021/01/27 02:41:41;;;;;;;12.55;10.65;;;;;;;;;;4969690;28;20652;-57
2021/01/27 02:44:09;;;;;;;10.90;9.17;;;;;;;;;;4968647;28;20201;-57
2021/01/27 02:46:39;;;;;;;15.17;9.77;;;;;;;;;;4957198;28;20599;-57
2021/01/27 02:49:20;;;;;;;10.80;9.60;;;;;;;;;;4965547;28;20606;-57
2021/01/27 02:51:48;;;;;;;10.67;8.27;;;;;;;;;;4962418;28;20610;-56
2021/01/27 02:54:22;;;;;;;11.83;9.90;;;;;;;;;;4966811;28;20623;-56
2021/01/27 02:56:56;;;;;;;12.10;10.00;;;;;;;;;;4957635;28;20674;-56
2021/01/27 02:59:32;;;;;;;11.83;9.33;;;;;;;;;;4952129;28;20608;-57
2021/01/27 03:02:01;;;;;;;15.27;10.43;;;;;;;;;;4963196;28;20633;-56
2021/01/27 03:04:30;;;;;;;11.93;9.87;;;;;;;;;;4952278;28;21286;-56
2021/01/27 03:06:56;;;;;;;13.60;9.03;;;;;;;;;;4964084;28;20592;-56
2021/01/27 03:09:30;;;;;;;10.70;8.40;;;;;;;;;;4968866;28;20654;-56
2021/01/27 03:11:55;;;;;;;10.47;9.37;;;;;;;;;;4967192;28;20586;-56
2021/01/27 03:14:20;;;;;;;11.60;9.32;;;;;;;;;;4970096;28;20642;-56
2021/01/27 03:16:59;;;;;;;9.90;8.40;;;;;;;;;;4956027;28;20249;-56
2021/01/27 03:19:30;;;;;;;13.80;9.17;;;;;;;;;;4959156;28;20185;-56
2021/01/27 03:21:58;;;;;;;10.17;8.63;;;;;;;;;;4955980;28;20713;-56
2021/01/27 03:24:24;;;;;;;14.10;9.67;;;;;;;;;;4951950;28;20651;-57
2021/01/27 03:27:00;;;;;;;11.13;9.30;;;;;;;;;;4963292;28;20726;-57
2021/01/27 03:29:40;;;;;;;11.90;9.90;;;;;;;;;;4958425;28;20679;-57
2021/01/27 03:32:08;;;;;;;13.53;8.90;;;;;;;;;;4952250;28;20601;-57
2021/01/27 03:34:41;;;;;;;11.60;10.07;;;;;;;;;;4959498;28;20616;-57
2021/01/27 03:37:10;;;;;;;10.77;9.37;;;;;;;;;;4963146;28;20703;-57
2021/01/27 03:39:37;;;;;;;10.70;8.70;;;;;;;;;;4964845;28;20633;-56
2021/01/27 03:42:07;;;;;;;10.37;8.70;;;;;;;;;;4964496;28;20655;-57
2021/01/27 03:44:35;;;;;;;11.77;9.87;;;;;;;;;;4952866;28;20659;-57
2021/01/27 03:47:06;;;;;;;15.53;10.47;;;;;;;;;;4968022;28;20687;-57
2021/01/27 03:49:35;;;;;;;14.60;10.83;;;;;;;;;;4950911;28;20622;-57
2021/01/27 03:52:07;;;;;;;14.40;10.30;;;;;;;;;;4964391;28;20606;-57
2021/01/27 03:54:33;;;;;;;11.53;9.10;;;;;;;;;;4960336;28;20611;-56
2021/01/27 03:57:01;;;;;;;11.97;10.27;;;;;;;;;;4963509;28;20763;-57
2021/01/27 03:59:26;;;;;;;12.60;9.87;;;;;;;;;;4951978;28;21148;-57
2021/01/27 04:01:52;;;;;;;12.17;9.53;;;;;;;;;;4967542;28;21226;-57
2021/01/27 04:04:18;;;;;;;15.13;10.67;;;;;;;;;;4953861;28;20208;-56
2021/01/27 04:06:43;;;;;;;10.03;8.97;;;;;;;;;;4961426;28;20690;-57
2021/01/27 04:09:09;;;;;;;14.87;10.80;;;;;;;;;;4961547;28;20612;-58
2021/01/27 04:11:34;;;;;;;13.27;10.50;;;;;;;;;;4965964;28;20182;-57
2021/01/27 04:13:59;;;;;;;12.40;10.60;;;;;;;;;;4959448;28;20270;-57
2021/01/27 04:16:25;;;;;;;10.82;9.73;;;;;;;;;;4969261;28;20226;-57
2021/01/27 04:18:50;;;;;;;12.50;8.70;;;;;;;;;;4956812;28;20181;-57
2021/01/27 04:21:15;;;;;;;11.13;9.50;;;;;;;;;;4952028;28;20257;-57
2021/01/27 04:23:40;;;;;;;13.53;10.37;;;;;;;;;;4964325;28;20846;-56
2021/01/27 04:26:05;;;;;;;12.65;9.95;;;;;;;;;;4951348;28;20209;-56
2021/01/27 04:28:30;;;;;;;13.18;10.35;;;;;;;;;;4968031;28;20272;-57
2021/01/27 04:30:56;;;;;;;13.90;10.18;;;;;;;;;;4964140;28;20771;-57
2021/01/27 04:33:21;;;;;;;11.45;9.73;;;;;;;;;;4955270;28;20188;-61
2021/01/27 04:35:46;;;;;;;14.82;10.30;;;;;;;;;;4950154;28;20221;-56
2021/01/27 04:38:11;;;;;;;12.10;10.23;;;;;;;;;;4950588;28;20792;-55
2021/01/27 04:40:38;;;;;;;12.40;9.60;;;;;;;;;;4957155;28;20233;-55
2021/01/27 04:43:04;;;;;;;12.37;9.80;;;;;;;;;;4947384;28;20188;-55
2021/01/27 04:45:29;;;;;;;14.83;9.90;;;;;;;;;;4964556;28;21112;-55
2021/01/27 04:47:54;;;;;;;13.00;10.90;;;;;;;;;;4955663;28;20700;-55
2021/01/27 04:50:29;;;;;;;12.15;9.57;;;;;;;;;;4958563;28;20186;-55
2021/01/27 04:53:05;;;;;;;10.33;8.90;;;;;;;;;;4969966;28;20171;-55
2021/01/27 04:55:40;;;;;;;11.50;10.00;;;;;;;;;;4972086;28;21212;-55
2021/01/27 04:58:24;;;;;;;13.10;9.70;;;;;;;;;;4957769;28;20610;-55
2021/01/27 05:00:52;;;;;;;14.20;10.37;;;;;;;;;;4958794;28;20606;-55
2021/01/27 05:03:36;;;;;;;13.50;10.63;;;;;;;;;;4965494;28;20602;-56
2021/01/27 05:06:04;;;;;;;12.10;10.60;;;;;;;;;;4959790;28;20737;-57
2021/01/27 05:08:31;;;;;;;14.97;10.10;;;;;;;;;;4959058;28;20592;-56
2021/01/27 05:11:03;;;;;;;11.80;9.40;;;;;;;;;;4958440;28;20698;-57
2021/01/27 05:13:34;;;;;;;11.30;10.10;;;;;;;;;;4954883;28;20737;-56
2021/01/27 05:16:02;;;;;;;14.10;9.90;;;;;;;;;;4960115;28;20963;-56
2021/01/27 05:18:27;;;;;;;12.67;9.30;;;;;;;;;;4959521;28;20664;-56
2021/01/27 05:20:52;;;;;;;13.80;9.93;;;;;;;;;;4967143;28;20661;-57
2021/01/27 05:23:18;;;;;;;12.03;9.50;;;;;;;;;;4959700;28;20206;-56
2021/01/27 05:25:45;;;;;;;11.67;10.43;;;;;;;;;;4957263;28;20283;-56
2021/01/27 05:28:19;;;;;;;10.40;9.30;;;;;;;;;;4962591;28;20667;-56
2021/01/27 05:30:51;;;;;;;12.23;10.47;;;;;;;;;;4957415;28;21248;-56
2021/01/27 05:33:17;;;;;;;13.50;9.10;;;;;;;;;;4967107;28;20691;-56
2021/01/27 05:35:42;;;;;;;10.63;8.93;;;;;;;;;;4960203;28;20612;-56
2021/01/27 05:38:37;;;;;;;14.38;11.23;;;;;;;;;;4963737;28;20191;-56
2021/01/27 05:41:21;;;;;;;14.17;9.80;;;;;;;;;;4963783;28;20230;-56
2021/01/27 05:43:47;;;;;;;12.00;9.80;;;;;;;;;;4955419;28;20760;-56
2021/01/27 05:46:15;;;;;;;11.33;9.33;;;;;;;;;;4956360;28;20892;-55
2021/01/27 05:48:48;;;;;;;11.03;9.73;;;;;;;;;;4956547;28;20595;-55
2021/01/27 05:51:15;;;;;;;12.20;10.13;;;;;;;;;;4971045;28;20618;-56
2021/01/27 05:53:41;;;;;;;13.60;10.93;;;;;;;;;;4958874;28;20901;-56
2021/01/27 05:56:13;;;;;;;11.90;10.13;;;;;;;;;;4957375;28;20603;-56
2021/01/27 05:58:39;;;;;;;11.70;9.53;;;;;;;;;;4969121;28;20543;-56
2021/01/27 06:01:15;;;;;;;10.40;9.30;;;;;;;;;;4954355;28;20608;-56
2021/01/27 06:03:48;;;;;;;13.13;9.77;;;;;;;;;;4957065;28;21366;-56
2021/01/27 06:06:13;;;;;;;10.87;9.17;;;;;;;;;;4965099;28;20650;-56
2021/01/27 06:08:46;;;;;;;14.50;11.07;;;;;;;;;;4965424;28;21151;-56
2021/01/27 06:11:12;;;;;;;11.27;10.07;;;;;;;;;;4955320;28;20563;-55
2021/01/27 06:13:37;;;;;;;13.00;10.73;;;;;;;;;;4965272;28;20678;-56
2021/01/27 06:16:08;;;;;;;13.80;10.23;;;;;;;;;;4969454;28;20187;-57
2021/01/27 06:18:33;;;;;;;12.57;10.60;;;;;;;;;;4968373;28;20240;-56
2021/01/27 06:21:05;;;;;;;12.77;9.82;;;;;;;;;;4963467;28;20631;-56
2021/01/27 06:23:30;;;;;;;12.87;10.67;;;;;;;;;;4964007;28;20189;-56
2021/01/27 06:26:03;;;;;;;13.35;11.38;;;;;;;;;;4965712;28;20963;-56
2021/01/27 06:28:51;;;;;;;11.87;10.13;;;;;;;;;;4967320;28;20181;-56
2021/01/27 06:31:21;;;;;;;13.47;10.70;;;;;;;;;;4965809;28;20602;-56
2021/01/27 06:33:58;;;;;;;13.43;10.57;;;;;;;;;;4964980;28;20652;-56
2021/01/27 06:36:34;;;;;;;13.83;11.60;;;;;;;;;;4966884;28;20634;-56
2021/01/27 06:39:02;;;;;;;13.07;11.67;;;;;;;;;;4958271;28;20628;-56
2021/01/27 06:41:46;;;;;;;13.40;12.00;;;;;;;;;;4956434;28;20664;-56
2021/01/27 06:44:31;;;;;;;14.03;10.10;;;;;;;;;;4950782;28;20650;-56
2021/01/27 06:47:05;;;;;;;12.93;10.80;;;;;;;;;;4955353;28;21231;-56
2021/01/27 06:49:42;;;;;;;14.50;11.70;;;;;;;;;;4955926;28;21185;-56
2021/01/27 06:52:07;;;;;;;14.23;11.80;;;;;;;;;;4963093;28;20715;-56
2021/01/27 06:54:42;;;;;;;14.05;11.52;;;;;;;;;;4966395;28;20735;-56
2021/01/27 06:57:25;;;;;;;15.47;11.47;;;;;;;;;;4961493;28;20190;-56
2021/01/27 06:59:51;;;;;;;12.73;10.70;;;;;;;;;;4955492;28;20689;-56
2021/01/27 07:02:18;;;;;;;14.67;12.30;;;;;;;;;;4964364;28;20655;-56
2021/01/27 07:05:02;;;;;;;14.27;11.90;;;;;;;;;;4963066;28;20643;-56
2021/01/27 07:07:59;;;;;;;13.93;12.27;;;;;;;;;;4965368;28;21300;-56
2021/01/27 07:10:27;;;;;;;16.53;12.97;;;;;;;;;;4964850;28;20608;-56
2021/01/27 07:13:11;;;;;;;16.33;12.60;;;;;;;;;;4966344;28;20607;-63
2021/01/27 07:15:36;;;;;;;15.97;13.37;;;;;;;;;;4968576;28;20625;-64
2021/01/27 07:18:20;;;;;;;16.02;12.75;;;;;;;;;;4964076;28;20615;-64
2021/01/27 07:20:49;;;;;;;14.23;12.73;;;;;;;;;;4965919;28;20193;-55
2021/01/27 07:23:17;;;;;;;14.27;12.70;;;;;;;;;;4966646;28;20607;-56
2021/01/27 07:25:52;;;;;;;13.50;11.47;;;;;;;;;;4962754;28;20752;-55
2021/01/27 07:28:21;;;;;;;14.27;12.40;;;;;;;;;;4966629;28;20597;-56
2021/01/27 07:30:52;;;;;;;14.37;12.80;;;;;;;;;;4964592;28;20599;-56
2021/01/27 07:33:19;;;;;;;16.10;11.70;;;;;;;;;;4968272;28;20932;-55
2021/01/27 07:36:03;;;;;;;15.10;12.27;;;;;;;;;;4963820;28;20621;-56
2021/01/27 07:38:32;;;;;;;18.33;13.90;;;;;;;;;;4963144;28;20743;-56
2021/01/27 07:40:59;;;;;;;15.73;13.37;;;;;;;;;;4968091;28;21307;-56
2021/01/27 07:43:27;;;;;;;14.93;13.20;;;;;;;;;;4969265;28;20623;-57
2021/01/27 07:45:55;;;;;;;16.90;12.70;;;;;;;;;;4968650;28;21233;-56
2021/01/27 07:48:36;;;;;;;13.60;12.07;;;;;;;;;;4967577;28;20608;-56
2021/01/27 07:51:04;;;;;;;14.23;12.67;;;;;;;;;;4965150;28;20601;-56
2021/01/27 07:53:29;;;;;;;16.70;14.03;;;;;;;;;;4963696;28;20626;-56
2021/01/27 07:56:09;;;;;;;16.60;13.68;;;;;;;;;;4965320;28;20619;-57
2021/01/27 07:58:40;;;;;;;15.67;13.87;;;;;;;;;;4962550;28;20192;-56
2021/01/27 08:01:09;;;;;;;14.37;12.93;;;;;;;;;;4965481;28;20830;-56
2021/01/27 08:03:40;;;;;;;14.73;12.20;;;;;;;;;;4967246;28;21252;-56
2021/01/27 08:06:07;;;;;;;16.57;13.20;;;;;;;;;;4964254;28;20657;-57
2021/01/27 08:08:42;;;;;;;19.10;15.90;;;;;;;;;;4966665;28;20601;-56
2021/01/27 08:11:10;;;;;;;17.10;14.43;;;;;;;;;;4966400;28;20612;-56
2021/01/27 08:13:37;;;;;;;17.40;14.73;;;;;;;;;;4961149;28;20684;-56
2021/01/27 08:16:06;;;;;;;19.33;15.80;;;;;;;;;;4965848;28;20687;-56
2021/01/27 08:18:31;;;;;;;14.97;13.10;;;;;;;;;;4966449;28;21133;-56
2021/01/27 08:21:26;;;;;;;15.13;13.50;;;;;;;;;;4953913;28;20601;-56
2021/01/27 08:23:51;;;;;;;15.87;13.60;;;;;;;;;;4949911;28;20223;-60
2021/01/27 08:26:43;;;;;;;19.63;14.87;;;;;;;;;;4963987;28;20756;-57
2021/01/27 08:29:08;;;;;;;15.57;13.93;;;;;;;;;;4970326;28;20186;-58
2021/01/27 08:31:33;;;;;;;15.70;13.30;;;;;;;;;;4966266;28;20596;-55
2021/01/27 08:33:59;;;;;;;15.68;14.07;;;;;;;;;;4971386;28;20219;-56
2021/01/27 08:36:33;;;;;;;15.27;13.33;;;;;;;;;;4971500;28;20176;-56
2021/01/27 08:38:58;;;;;;;15.33;13.13;;;;;;;;;;4971155;28;20202;-56
2021/01/27 08:41:41;;;;;;;15.90;14.20;;;;;;;;;;4961311;28;20684;-56
2021/01/27 08:44:11;;;;;;;17.30;14.20;;;;;;;;;;4951580;28;20193;-56
2021/01/27 08:46:44;;;;;;;17.53;15.07;;;;;;;;;;4952800;28;20630;-55
2021/01/27 08:49:10;;;;;;;16.40;14.63;;;;;;;;;;4951283;29;20665;-56
2021/01/27 08:51:39;;;;;;;16.30;14.20;;;;;;;;;;4951494;28;20602;-56
2021/01/27 08:54:21;;;;;;;16.53;14.50;;;;;;;;;;4951478;29;20589;-56
2021/01/27 08:57:05;;;;;;;17.40;13.97;;;;;;;;;;4962835;28;20604;-56
2021/01/27 08:59:30;;;;;;;16.63;14.07;;;;;;;;;;4970294;28;20813;-56
2021/01/27 09:01:55;;;;;;;17.20;15.27;;;;;;;;;;4970072;28;21175;-56
2021/01/27 09:04:34;;;;;;;15.13;13.52;;;;;;;;;;4970476;28;20200;-56
2021/01/27 09:07:06;;;;;;;15.60;13.37;;;;;;;;;;4958167;28;20242;-57
2021/01/27 09:09:38;;;;;;;14.10;12.60;;;;;;;;;;4950925;29;20593;-56
2021/01/27 09:12:05;;;;;;;14.03;12.43;;;;;;;;;;4950648;28;20603;-56
2021/01/27 09:14:30;;;;;;;14.20;12.70;;;;;;;;;;4963696;28;20600;-56
2021/01/27 09:16:56;;;;;;;14.00;11.73;;;;;;;;;;4968006;28;20605;-56
2021/01/27 09:19:23;;;;;;;15.70;13.13;;;;;;;;;;4970068;28;20239;-56
2021/01/27 09:21:59;;;;;;;12.43;11.23;;;;;;;;;;4969912;28;20182;-56
2021/01/27 09:24:28;;;;;;;13.57;12.27;;;;;;;;;;4969529;28;20632;-57
2021/01/27 09:26:55;;;;;;;14.93;12.70;;;;;;;;;;4955684;28;21175;-57
2021/01/27 09:29:21;;;;;;;14.37;12.90;;;;;;;;;;4951472;28;20694;-57
2021/01/27 09:31:47;;;;;;;14.83;13.10;;;;;;;;;;4951089;28;20567;-57
2021/01/27 09:34:13;;;;;;;13.50;12.10;;;;;;;;;;4951284;28;20581;-56
2021/01/27 09:36:39;;;;;;;14.20;12.50;;;;;;;;;;4950309;28;20180;-57
2021/01/27 09:39:05;;;;;;;13.50;12.20;;;;;;;;;;4951695;28;20610;-57
2021/01/27 09:41:31;;;;;;;13.27;11.87;;;;;;;;;;4950715;28;21019;-57
2021/01/27 09:43:57;;;;;;;13.70;12.00;;;;;;;;;;4950391;28;20834;-57
2021/01/27 09:46:34;;;;;;;14.30;11.97;;;;;;;;;;4950429;28;20602;-57
2021/01/27 09:49:07;;;;;;;14.50;12.80;;;;;;;;;;4950587;28;20601;-57
2021/01/27 09:51:32;;;;;;;13.77;12.27;;;;;;;;;;4952188;28;20620;-56
2021/01/27 09:53:58;;;;;;;13.20;12.00;;;;;;;;;;4950749;29;20981;-57
2021/01/27 09:56:24;;;;;;;13.37;12.10;;;;;;;;;;4950275;28;20333;-57
2021/01/27 09:58:50;;;;;;;14.67;12.60;;;;;;;;;;4950879;29;20677;-56
2021/01/27 10:01:20;;;;;;;14.50;13.00;;;;;;;;;;4951620;28;20191;-57
2021/01/27 10:03:46;;;;;;;15.27;13.73;;;;;;;;;;4950629;28;20638;-57
2021/01/27 10:06:30;;;;;;;15.17;13.10;;;;;;;;;;4951365;28;20688;-57
2021/01/27 10:08:57;;;;;;;14.80;12.87;;;;;;;;;;4950349;29;20644;-55
2021/01/27 10:11:28;;;;;;;13.93;12.53;;;;;;;;;;4950148;28;20637;-56
2021/01/27 10:14:19;;;;;;;13.63;11.97;;;;;;;;;;4949973;29;20592;-56
2021/01/27 10:16:52;;;;;;;15.60;13.50;;;;;;;;;;4950017;28;20622;-57
2021/01/27 10:19:24;;;;;;;17.70;14.57;;;;;;;;;;4950507;28;20587;-56
2021/01/27 10:21:50;;;;;;;14.77;13.47;;;;;;;;;;4950186;28;20567;-56
2021/01/27 10:24:34;;;;;;;14.47;13.03;;;;;;;;;;4950198;28;21151;-57
2021/01/27 10:27:00;;;;;;;15.20;13.60;;;;;;;;;;4963643;28;20640;-57
2021/01/27 10:29:31;;;;;;;13.43;12.03;;;;;;;;;;4969452;28;20612;-56
2021/01/27 10:31:56;;;;;;;13.80;12.50;;;;;;;;;;4969552;28;20254;-57
2021/01/27 10:34:34;;;;;;;13.30;12.00;;;;;;;;;;4969909;28;20674;-57
2021/01/27 10:36:59;;;;;;;12.87;11.50;;;;;;;;;;4967619;28;20186;-56
2021/01/27 10:39:25;;;;;;;13.25;11.23;;;;;;;;;;4969305;28;20713;-56
2021/01/27 10:41:52;;;;;;;13.23;11.83;;;;;;;;;;4968906;28;20233;-57
2021/01/27 10:44:17;;;;;;;18.00;12.73;;;;;;;;;;4969778;28;20578;-56
2021/01/27 10:46:43;;;;;;;13.13;11.93;;;;;;;;;;4953086;28;20606;-56
2021/01/27 10:49:08;;;;;;;14.10;11.90;;;;;;;;;;4949245;28;20647;-57
2021/01/27 10:51:34;;;;;;;12.30;11.10;;;;;;;;;;4950692;28;20171;-56
2021/01/27 10:54:01;;;;;;;12.47;11.17;;;;;;;;;;4949844;28;20253;-57
2021/01/27 10:56:26;;;;;;;12.00;10.70;;;;;;;;;;4960996;28;20186;-55
2021/01/27 10:58:51;;;;;;;11.65;10.38;;;;;;;;;;4966723;28;20719;-56
2021/01/27 11:01:16;;;;;;;11.00;10.10;;;;;;;;;;4963351;28;20187;-54
2021/01/27 11:03:41;;;;;;;13.18;11.90;;;;;;;;;;4969442;28;20175;-58
2021/01/27 11:06:06;;;;;;;13.75;12.15;;;;;;;;;;4967065;28;20613;-60
2021/01/27 11:08:33;;;;;;;10.57;9.60;;;;;;;;;;4950785;29;20205;-58
2021/01/27 11:10:59;;;;;;;11.07;9.70;;;;;;;;;;4968847;28;20196;-59
2021/01/27 11:13:24;;;;;;;11.57;9.43;;;;;;;;;;4965344;28;21163;-56
2021/01/27 11:15:50;;;;;;;11.13;10.03;;;;;;;;;;4969743;28;20181;-59
2021/01/27 11:18:15;;;;;;;10.27;9.27;;;;;;;;;;4967369;28;20693;-60
2021/01/27 11:23:34;;;;;;;10.60;9.60;;;;;;;;;;4964944;28;20299;-60
2021/01/27 11:25:59;;;;;;;10.13;9.23;;;;;;;;;;4967202;28;20704;-60
2021/01/27 11:28:25;;;;;;;10.00;9.10;;;;;;;;;;4968657;28;20261;-60
2021/01/27 11:30:50;;;;;;;9.80;8.77;;;;;;;;;;4969154;28;20709;-60
2021/01/27 11:33:18;;;;;;;10.93;9.80;;;;;;;;;;4968904;28;20184;-60
2021/01/27 11:35:43;;;;;;;9.80;8.80;;;;;;;;;;4967973;28;20415;-59
2021/01/27 11:38:08;;;;;;;8.60;7.80;;;;;;;;;;4969009;28;20743;-60
2021/01/27 11:40:34;;;;;;;10.30;9.40;;;;;;;;;;4969192;28;20275;-59
2021/01/27 11:42:59;;;;;;;13.60;8.97;;;;;;;;;;4967387;28;20185;-59
2021/01/27 11:45:24;;;;;;;9.60;8.00;;;;;;;;;;4957569;28;20290;-60
2021/01/27 11:47:49;;;;;;;9.83;8.83;;;;;;;;;;4968970;28;20182;-60
2021/01/27 11:50:15;;;;;;;10.13;9.27;;;;;;;;;;4968828;28;20177;-59
2021/01/27 11:52:41;;;;;;;9.23;8.43;;;;;;;;;;4968383;28;20520;-59
2021/01/27 11:55:06;;;;;;;9.53;8.63;;;;;;;;;;4965764;28;20258;-60
2021/01/27 11:57:31;;;;;;;9.00;8.10;;;;;;;;;;4956659;28;20185;-60
2021/01/27 11:59:56;;;;;;;8.55;7.75;;;;;;;;;;4971413;28;20261;-60
2021/01/27 12:02:21;;;;;;;14.87;8.80;;;;;;;;;;4962244;28;20188;-59
2021/01/27 12:04:47;;;;;;;7.35;6.75;;;;;;;;;;4968494;28;20564;-60
2021/01/27 12:07:12;;;;;;;7.47;6.85;;;;;;;;;;4963533;28;20608;-60
2021/01/27 12:09:37;;;;;;;8.33;6.60;;;;;;;;;;4961004;28;20175;-59
2021/01/27 12:12:03;;;;;;;7.30;6.70;;;;;;;;;;4973068;28;20265;-59
2021/01/27 12:14:28;;;;;;;7.97;7.27;;;;;;;;;;4972771;28;20181;-59
2021/01/27 12:16:53;;;;;;;8.00;7.30;;;;;;;;;;4962524;28;20179;-58
2021/01/27 12:19:21;;;;;;;7.75;7.07;;;;;;;;;;4966512;28;20186;-59
2021/01/27 12:21:46;;;;;;;7.30;6.70;;;;;;;;;;4968896;28;20179;-58
2021/01/27 12:24:11;;;;;;;8.07;6.68;;;;;;;;;;4971250;28;20622;-60
2021/01/27 12:26:37;;;;;;;8.53;7.73;;;;;;;;;;4971944;28;20175;-59
2021/01/27 12:29:03;;;;;;;8.48;7.63;;;;;;;;;;4966455;28;20262;-59
2021/01/27 12:31:28;;;;;;;9.87;7.53;;;;;;;;;;4971074;28;20225;-59
2021/01/27 12:33:53;;;;;;;8.00;7.30;;;;;;;;;;4970937;28;20657;-59
2021/01/27 12:36:18;;;;;;;7.37;6.67;;;;;;;;;;4972265;28;20190;-58
2021/01/27 12:38:44;;;;;;;6.90;6.30;;;;;;;;;;4971158;28;21503;-59
2021/01/27 12:41:09;;;;;;;7.30;6.50;;;;;;;;;;4970022;28;20628;-59
2021/01/27 12:43:34;;;;;;;11.20;6.70;;;;;;;;;;4968528;28;20170;-58
2021/01/27 12:46:02;;;;;;;6.93;6.33;;;;;;;;;;4970487;28;20314;-60
2021/01/27 12:48:27;;;;;;;6.70;6.20;;;;;;;;;;4972112;28;20255;-58
2021/01/27 12:50:52;;;;;;;7.73;7.03;;;;;;;;;;4962212;28;20595;-58
2021/01/27 12:53:17;;;;;;;7.97;6.87;;;;;;;;;;4964380;28;20175;-58
2021/01/27 12:55:42;;;;;;;7.57;6.23;;;;;;;;;;4954086;28;20992;-58
2021/01/27 12:58:07;;;;;;;6.60;6.00;;;;;;;;;;4952782;28;20179;-58
2021/01/27 13:00:33;;;;;;;6.27;5.77;;;;;;;;;;4964466;28;20189;-59
2021/01/27 13:02:58;;;;;;;6.72;5.65;;;;;;;;;;4971674;28;20182;-59
2021/01/27 13:05:24;;;;;;;6.22;5.40;;;;;;;;;;4971292;28;20209;-59
2021/01/27 13:07:49;;;;;;;6.07;5.57;;;;;;;;;;4975197;28;20599;-59
2021/01/27 13:10:15;;;;;;;6.77;5.40;;;;;;;;;;4969562;28;20677;-59
2021/01/27 13:12:42;;;;;;;5.73;5.23;;;;;;;;;;4967192;28;20178;-60
2021/01/27 13:15:08;;;;;;;5.20;4.80;;;;;;;;;;4971324;28;20178;-59
2021/01/27 13:17:33;;;;;;;6.13;5.53;;;;;;;;;;4971634;28;20605;-59
2021/01/27 13:19:58;;;;;;;5.43;4.93;;;;;;;;;;4967751;28;20949;-59
2021/01/27 13:22:23;;;;;;;6.00;5.50;;;;;;;;;;4951948;28;20176;-59
2021/01/27 13:24:48;;;;;;;5.57;5.17;;;;;;;;;;4952247;29;20207;-59
2021/01/27 13:27:14;;;;;;;8.37;5.70;;;;;;;;;;4952084;29;20259;-59
2021/01/27 13:29:39;;;;;;;5.57;5.07;;;;;;;;;;4952168;29;20236;-60
2021/01/27 13:32:04;;;;;;;6.00;5.40;;;;;;;;;;4953359;28;20755;-59
2021/01/27 13:34:29;;;;;;;5.80;5.30;;;;;;;;;;4951719;28;20180;-58
2021/01/27 13:36:54;;;;;;;5.70;5.30;;;;;;;;;;4970823;28;20186;-59
2021/01/27 13:39:19;;;;;;;5.85;5.35;;;;;;;;;;4971285;28;20195;-59
2021/01/27 13:41:45;;;;;;;5.53;4.95;;;;;;;;;;4960373;28;20230;-59
2021/01/27 13:44:10;;;;;;;5.97;5.40;;;;;;;;;;4951514;29;20230;-60
2021/01/27 13:46:35;;;;;;;6.03;5.53;;;;;;;;;;4952043;28;20211;-60
2021/01/27 13:49:01;;;;;;;8.00;6.07;;;;;;;;;;4951760;29;20172;-59
2021/01/27 13:51:26;;;;;;;6.60;6.00;;;;;;;;;;4966554;28;20306;-59
2021/01/27 13:53:51;;;;;;;7.20;6.20;;;;;;;;;;4970866;28;20175;-59
2021/01/27 13:56:16;;;;;;;7.03;6.43;;;;;;;;;;4970710;28;20640;-59
2021/01/27 13:58:41;;;;;;;7.03;6.43;;;;;;;;;;4967953;28;20823;-59
2021/01/27 14:01:06;;;;;;;7.40;6.70;;;;;;;;;;4951756;28;20235;-59
2021/01/27 14:03:31;;;;;;;7.33;6.70;;;;;;;;;;4951095;28;20187;-58
2021/01/27 14:05:57;;;;;;;7.10;6.50;;;;;;;;;;4951039;28;20211;-58
2021/01/27 14:08:22;;;;;;;7.68;6.32;;;;;;;;;;4951210;29;20183;-58
2021/01/27 14:10:47;;;;;;;9.20;7.50;;;;;;;;;;4966055;28;20700;-59
2021/01/27 14:13:12;;;;;;;7.25;6.47;;;;;;;;;;4970280;28;20446;-60
2021/01/27 14:15:37;;;;;;;7.43;6.73;;;;;;;;;;4970497;28;20171;-59
2021/01/27 14:18:02;;;;;;;8.27;6.78;;;;;;;;;;4970502;28;20229;-59
2021/01/27 14:20:30;;;;;;;7.00;6.30;;;;;;;;;;4968284;28;20316;-58
2021/01/27 14:22:55;;;;;;;6.53;6.03;;;;;;;;;;4970050;28;20189;-59
2021/01/27 14:25:24;;;;;;;6.73;5.80;;;;;;;;;;4970150;28;20654;-60
2021/01/27 14:27:51;;;;;;;8.60;6.20;;;;;;;;;;4970567;28;20584;-59
2021/01/27 14:30:17;;;;;;;6.13;5.53;;;;;;;;;;4968308;28;20613;-60
2021/01/27 14:32:42;;;;;;;6.50;6.00;;;;;;;;;;4969860;28;21449;-60
2021/01/27 14:35:08;;;;;;;6.37;5.70;;;;;;;;;;4969775;28;20606;-60
2021/01/27 14:37:33;;;;;;;8.70;5.97;;;;;;;;;;4969704;28;20173;-59